sensor_id;sensor_type;location;lat;lon;timestamp;temperature;humidity
8226;DHT22;4154;48.810;9.012;2023-02-15T00:00:12;1.30;99.40
8226;DHT22;4154;48.810;9.012;2023-02-15T00:02:39;1.30;99.40
8226;DHT22;4154;48.810;9.012;2023-02-15T00:05:05;0.90;99.90
8226;DHT22;4154;48.810;9.012;2023-02-15T00:07:31;1.40;99.20
8226;DHT22;4154;48.810;9.012;2023-02-15T00:09:56;1.40;99.10
8226;DHT22;4154;48.810;9.012;2023-02-15T00:12:22;1.40;99.10
8226;DHT22;4154;48.810;9.012;2023-02-15T00:14:48;1.40;99.00
8226;DHT22;4154;48.810;9.012;2023-02-15T00:17:13;1.30;98.90
8226;DHT22;4154;48.810;9.012;2023-02-15T00:19:39;1.30;99.00
8226;DHT22;4154;48.810;9.012;2023-02-15T00:22:05;1.30;99.00
8226;DHT22;4154;48.810;9.012;2023-02-15T00:24:32;1.30;99.00
8226;DHT22;4154;48.810;9.012;2023-02-15T00:26:57;1.30;98.90
8226;DHT22;4154;48.810;9.012;2023-02-15T00:29:23;1.30;99.90
8226;DHT22;4154;48.810;9.012;2023-02-15T00:31:49;1.30;98.90
8226;DHT22;4154;48.810;9.012;2023-02-15T00:34:18;1.30;98.90
8226;DHT22;4154;48.810;9.012;2023-02-15T00:36:46;1.30;99.90
8226;DHT22;4154;48.810;9.012;2023-02-15T00:39:12;1.20;99.00
8226;DHT22;4154;48.810;9.012;2023-02-15T00:41:38;1.20;99.00
8226;DHT22;4154;48.810;9.012;2023-02-15T00:44:05;1.20;99.10
8226;DHT22;4154;48.810;9.012;2023-02-15T00:46:31;1.10;99.90
8226;DHT22;4154;48.810;9.012;2023-02-15T00:48:57;1.20;99.10
8226;DHT22;4154;48.810;9.012;2023-02-15T00:51:23;1.10;99.10
8226;DHT22;4154;48.810;9.012;2023-02-15T00:53:50;1.10;99.10
8226;DHT22;4154;48.810;9.012;2023-02-15T00:56:15;1.00;99.10
8226;DHT22;4154;48.810;9.012;2023-02-15T00:58:43;1.00;99.10
8226;DHT22;4154;48.810;9.012;2023-02-15T01:01:15;0.90;99.10
8226;DHT22;4154;48.810;9.012;2023-02-15T01:03:42;0.80;99.10
8226;DHT22;4154;48.810;9.012;2023-02-15T01:06:09;0.80;99.00
8226;DHT22;4154;48.810;9.012;2023-02-15T01:08:36;0.80;99.20
8226;DHT22;4154;48.810;9.012;2023-02-15T01:11:07;0.80;99.20
8226;DHT22;4154;48.810;9.012;2023-02-15T01:13:35;0.80;99.20
8226;DHT22;4154;48.810;9.012;2023-02-15T01:16:02;0.90;99.30
8226;DHT22;4154;48.810;9.012;2023-02-15T01:18:28;0.90;99.30
8226;DHT22;4154;48.810;9.012;2023-02-15T01:20:55;1.00;99.30
8226;DHT22;4154;48.810;9.012;2023-02-15T01:23:21;1.00;99.20
8226;DHT22;4154;48.810;9.012;2023-02-15T01:25:47;1.00;99.20
8226;DHT22;4154;48.810;9.012;2023-02-15T01:28:12;1.00;99.10
8226;DHT22;4154;48.810;9.012;2023-02-15T01:30:38;1.00;99.10
8226;DHT22;4154;48.810;9.012;2023-02-15T01:35:30;1.00;98.90
8226;DHT22;4154;48.810;9.012;2023-02-15T01:37:57;0.90;99.00
8226;DHT22;4154;48.810;9.012;2023-02-15T01:40:23;0.80;99.10
8226;DHT22;4154;48.810;9.012;2023-02-15T01:42:53;0.70;99.00
8226;DHT22;4154;48.810;9.012;2023-02-15T01:45:25;0.70;99.10
8226;DHT22;4154;48.810;9.012;2023-02-15T01:48:12;0.60;99.10
8226;DHT22;4154;48.810;9.012;2023-02-15T01:50:46;0.60;99.00
8226;DHT22;4154;48.810;9.012;2023-02-15T01:53:31;0.50;99.10
8226;DHT22;4154;48.810;9.012;2023-02-15T01:56:05;0.60;99.20
8226;DHT22;4154;48.810;9.012;2023-02-15T01:58:35;0.60;99.30
8226;DHT22;4154;48.810;9.012;2023-02-15T02:01:02;0.60;99.30
8226;DHT22;4154;48.810;9.012;2023-02-15T02:06:24;0.60;99.40
8226;DHT22;4154;48.810;9.012;2023-02-15T02:08:53;0.70;99.50
8226;DHT22;4154;48.810;9.012;2023-02-15T02:11:19;0.60;99.50
8226;DHT22;4154;48.810;9.012;2023-02-15T02:13:45;0.60;99.50
8226;DHT22;4154;48.810;9.012;2023-02-15T02:16:39;0.60;99.50
8226;DHT22;4154;48.810;9.012;2023-02-15T02:22:55;0.60;99.60
8226;DHT22;4154;48.810;9.012;2023-02-15T02:28:51;0.70;99.60
8226;DHT22;4154;48.810;9.012;2023-02-15T02:34:56;0.60;99.70
8226;DHT22;4154;48.810;9.012;2023-02-15T02:40:37;0.70;99.90
8226;DHT22;4154;48.810;9.012;2023-02-15T02:43:21;0.60;99.90
8226;DHT22;4154;48.810;9.012;2023-02-15T02:46:29;0.60;99.90
8226;DHT22;4154;48.810;9.012;2023-02-15T02:49:01;0.60;99.90
8226;DHT22;4154;48.810;9.012;2023-02-15T02:53:59;0.60;99.90
8226;DHT22;4154;48.810;9.012;2023-02-15T02:56:35;0.50;99.90
8226;DHT22;4154;48.810;9.012;2023-02-15T02:59:13;0.50;99.90
8226;DHT22;4154;48.810;9.012;2023-02-15T03:04:57;0.60;99.90
8226;DHT22;4154;48.810;9.012;2023-02-15T03:07:30;0.50;99.90
8226;DHT22;4154;48.810;9.012;2023-02-15T03:09:59;0.50;99.90
8226;DHT22;4154;48.810;9.012;2023-02-15T03:12:28;0.50;99.90
8226;DHT22;4154;48.810;9.012;2023-02-15T03:17:32;0.50;99.90
8226;DHT22;4154;48.810;9.012;2023-02-15T03:20:06;0.40;99.90
8226;DHT22;4154;48.810;9.012;2023-02-15T03:22:40;0.40;99.90
8226;DHT22;4154;48.810;9.012;2023-02-15T03:25:17;0.40;99.90
8226;DHT22;4154;48.810;9.012;2023-02-15T03:27:58;0.40;99.90
8226;DHT22;4154;48.810;9.012;2023-02-15T03:30:28;0.40;99.90
8226;DHT22;4154;48.810;9.012;2023-02-15T03:32:58;0.50;99.90
8226;DHT22;4154;48.810;9.012;2023-02-15T03:35:36;0.50;99.90
8226;DHT22;4154;48.810;9.012;2023-02-15T03:38:12;0.40;99.90
8226;DHT22;4154;48.810;9.012;2023-02-15T03:40:47;0.40;99.90
8226;DHT22;4154;48.810;9.012;2023-02-15T03:49:21;0.40;99.90
8226;DHT22;4154;48.810;9.012;2023-02-15T03:52:01;0.30;99.90
8226;DHT22;4154;48.810;9.012;2023-02-15T03:54:31;0.30;99.90
8226;DHT22;4154;48.810;9.012;2023-02-15T03:57:18;0.30;99.90
8226;DHT22;4154;48.810;9.012;2023-02-15T04:00:22;0.10;99.90
8226;DHT22;4154;48.810;9.012;2023-02-15T04:03:12;0.10;99.90
8226;DHT22;4154;48.810;9.012;2023-02-15T04:05:52;0.10;99.90
8226;DHT22;4154;48.810;9.012;2023-02-15T04:08:18;0.00;99.90
8226;DHT22;4154;48.810;9.012;2023-02-15T04:13:24;0.00;99.90
8226;DHT22;4154;48.810;9.012;2023-02-15T04:15:56;0.00;99.90
8226;DHT22;4154;48.810;9.012;2023-02-15T04:18:38;0.00;99.90
8226;DHT22;4154;48.810;9.012;2023-02-15T04:21:27;0.00;99.90
8226;DHT22;4154;48.810;9.012;2023-02-15T04:24:13;-0.10;99.90
8226;DHT22;4154;48.810;9.012;2023-02-15T04:26:57;-0.10;99.90
8226;DHT22;4154;48.810;9.012;2023-02-15T04:29:24;-0.20;99.90
8226;DHT22;4154;48.810;9.012;2023-02-15T04:31:52;-0.20;99.90
8226;DHT22;4154;48.810;9.012;2023-02-15T04:34:18;-0.30;99.90
8226;DHT22;4154;48.810;9.012;2023-02-15T04:36:44;-0.30;99.90
8226;DHT22;4154;48.810;9.012;2023-02-15T04:39:13;-0.40;99.90
8226;DHT22;4154;48.810;9.012;2023-02-15T04:41:40;-0.40;99.90
8226;DHT22;4154;48.810;9.012;2023-02-15T04:44:06;-0.40;99.90
8226;DHT22;4154;48.810;9.012;2023-02-15T04:46:32;-0.40;99.90
8226;DHT22;4154;48.810;9.012;2023-02-15T04:48:58;-0.50;99.90
8226;DHT22;4154;48.810;9.012;2023-02-15T04:51:23;-0.50;99.90
8226;DHT22;4154;48.810;9.012;2023-02-15T04:53:50;-0.50;99.90
8226;DHT22;4154;48.810;9.012;2023-02-15T04:56:18;-0.50;99.90
8226;DHT22;4154;48.810;9.012;2023-02-15T04:58:44;-0.50;99.90
8226;DHT22;4154;48.810;9.012;2023-02-15T05:01:10;-0.60;99.90
8226;DHT22;4154;48.810;9.012;2023-02-15T05:03:36;-0.60;99.90
8226;DHT22;4154;48.810;9.012;2023-02-15T05:06:03;-0.50;99.90
8226;DHT22;4154;48.810;9.012;2023-02-15T05:08:30;-0.60;99.90
8226;DHT22;4154;48.810;9.012;2023-02-15T05:10:56;-0.70;99.90
8226;DHT22;4154;48.810;9.012;2023-02-15T05:13:22;-0.70;99.90
8226;DHT22;4154;48.810;9.012;2023-02-15T05:15:53;-0.70;99.90
8226;DHT22;4154;48.810;9.012;2023-02-15T05:18:20;-0.80;99.90
8226;DHT22;4154;48.810;9.012;2023-02-15T05:20:48;-0.70;99.90
8226;DHT22;4154;48.810;9.012;2023-02-15T05:23:14;-0.70;99.90
8226;DHT22;4154;48.810;9.012;2023-02-15T05:25:40;-0.70;99.90
8226;DHT22;4154;48.810;9.012;2023-02-15T05:28:26;-0.70;99.90
8226;DHT22;4154;48.810;9.012;2023-02-15T05:31:03;-0.80;99.70
8226;DHT22;4154;48.810;9.012;2023-02-15T05:33:35;-0.80;99.60
8226;DHT22;4154;48.810;9.012;2023-02-15T05:36:01;-0.90;99.60
8226;DHT22;4154;48.810;9.012;2023-02-15T05:38:28;-0.80;99.70
8226;DHT22;4154;48.810;9.012;2023-02-15T05:40:54;-0.80;99.60
8226;DHT22;4154;48.810;9.012;2023-02-15T05:43:21;-0.80;99.60
8226;DHT22;4154;48.810;9.012;2023-02-15T05:45:47;-0.80;99.60
8226;DHT22;4154;48.810;9.012;2023-02-15T05:48:18;-0.90;99.30
8226;DHT22;4154;48.810;9.012;2023-02-15T05:50:45;-1.00;99.50
8226;DHT22;4154;48.810;9.012;2023-02-15T05:53:11;-1.00;99.60
8226;DHT22;4154;48.810;9.012;2023-02-15T05:55:38;-1.10;99.60
8226;DHT22;4154;48.810;9.012;2023-02-15T05:58:05;-1.10;99.60
8226;DHT22;4154;48.810;9.012;2023-02-15T06:00:33;-1.10;99.70
8226;DHT22;4154;48.810;9.012;2023-02-15T06:02:59;-1.00;99.70
8226;DHT22;4154;48.810;9.012;2023-02-15T06:05:25;-1.10;99.50
8226;DHT22;4154;48.810;9.012;2023-02-15T06:07:50;-1.10;99.40
8226;DHT22;4154;48.810;9.012;2023-02-15T06:10:16;-1.10;99.20
8226;DHT22;4154;48.810;9.012;2023-02-15T06:12:43;-1.20;99.10
8226;DHT22;4154;48.810;9.012;2023-02-15T06:15:10;-1.20;99.00
8226;DHT22;4154;48.810;9.012;2023-02-15T06:17:35;-1.20;98.90
8226;DHT22;4154;48.810;9.012;2023-02-15T06:20:01;-1.30;98.90
8226;DHT22;4154;48.810;9.012;2023-02-15T06:22:27;-1.40;99.00
8226;DHT22;4154;48.810;9.012;2023-02-15T06:24:52;-1.30;99.10
8226;DHT22;4154;48.810;9.012;2023-02-15T06:27:18;-1.40;99.30
8226;DHT22;4154;48.810;9.012;2023-02-15T06:29:43;-1.20;99.50
8226;DHT22;4154;48.810;9.012;2023-02-15T06:32:09;-1.10;99.40
8226;DHT22;4154;48.810;9.012;2023-02-15T06:37:01;-1.10;99.20
8226;DHT22;4154;48.810;9.012;2023-02-15T06:39:26;-1.00;99.40
8226;DHT22;4154;48.810;9.012;2023-02-15T06:41:52;-1.00;99.40
8226;DHT22;4154;48.810;9.012;2023-02-15T06:44:17;-0.90;99.30
8226;DHT22;4154;48.810;9.012;2023-02-15T06:49:09;-1.00;98.90
8226;DHT22;4154;48.810;9.012;2023-02-15T06:51:35;-1.10;98.90
8226;DHT22;4154;48.810;9.012;2023-02-15T06:54:00;-1.10;98.90
8226;DHT22;4154;48.810;9.012;2023-02-15T06:56:26;-1.10;98.80
8226;DHT22;4154;48.810;9.012;2023-02-15T06:58:51;-1.20;98.80
8226;DHT22;4154;48.810;9.012;2023-02-15T07:01:18;-1.30;98.90
8226;DHT22;4154;48.810;9.012;2023-02-15T07:03:44;-1.20;98.90
8226;DHT22;4154;48.810;9.012;2023-02-15T07:06:10;-1.20;98.80
8226;DHT22;4154;48.810;9.012;2023-02-15T07:08:37;-1.20;98.70
8226;DHT22;4154;48.810;9.012;2023-02-15T07:11:05;-1.30;98.60
8226;DHT22;4154;48.810;9.012;2023-02-15T07:13:50;-1.30;98.60
8226;DHT22;4154;48.810;9.012;2023-02-15T07:16:18;-1.50;98.50
8226;DHT22;4154;48.810;9.012;2023-02-15T07:18:44;-1.50;98.70
8226;DHT22;4154;48.810;9.012;2023-02-15T07:21:09;-1.60;98.90
8226;DHT22;4154;48.810;9.012;2023-02-15T07:23:36;-1.60;98.90
8226;DHT22;4154;48.810;9.012;2023-02-15T07:26:03;-1.60;98.90
8226;DHT22;4154;48.810;9.012;2023-02-15T07:28:30;-1.60;98.90
8226;DHT22;4154;48.810;9.012;2023-02-15T07:30:56;-1.50;99.00
8226;DHT22;4154;48.810;9.012;2023-02-15T07:33:23;-1.50;99.00
8226;DHT22;4154;48.810;9.012;2023-02-15T07:35:49;-1.50;99.10
8226;DHT22;4154;48.810;9.012;2023-02-15T07:38:17;-1.50;99.10
8226;DHT22;4154;48.810;9.012;2023-02-15T07:43:11;-1.50;99.00
8226;DHT22;4154;48.810;9.012;2023-02-15T07:45:38;-1.60;99.30
8226;DHT22;4154;48.810;9.012;2023-02-15T07:48:05;-1.60;99.40
8226;DHT22;4154;48.810;9.012;2023-02-15T07:50:31;-1.60;99.60
8226;DHT22;4154;48.810;9.012;2023-02-15T07:52:57;-1.50;99.70
8226;DHT22;4154;48.810;9.012;2023-02-15T07:55:23;-1.60;99.80
8226;DHT22;4154;48.810;9.012;2023-02-15T07:57:50;-1.50;99.90
8226;DHT22;4154;48.810;9.012;2023-02-15T08:00:18;-1.50;99.90
8226;DHT22;4154;48.810;9.012;2023-02-15T08:02:53;-1.50;99.90
8226;DHT22;4154;48.810;9.012;2023-02-15T08:05:42;-1.50;99.90
8226;DHT22;4154;48.810;9.012;2023-02-15T08:08:10;-1.40;99.80
8226;DHT22;4154;48.810;9.012;2023-02-15T08:11:05;-1.40;99.90
8226;DHT22;4154;48.810;9.012;2023-02-15T08:16:37;-1.30;99.90
8226;DHT22;4154;48.810;9.012;2023-02-15T08:21:39;-1.30;99.90
8226;DHT22;4154;48.810;9.012;2023-02-15T08:24:08;-1.30;99.90
8226;DHT22;4154;48.810;9.012;2023-02-15T08:26:36;-1.30;99.90
8226;DHT22;4154;48.810;9.012;2023-02-15T08:29:04;-1.30;99.90
8226;DHT22;4154;48.810;9.012;2023-02-15T08:31:32;-1.20;99.90
8226;DHT22;4154;48.810;9.012;2023-02-15T08:33:59;-1.30;99.90
8226;DHT22;4154;48.810;9.012;2023-02-15T08:36:28;-1.20;99.90
8226;DHT22;4154;48.810;9.012;2023-02-15T08:39:02;-1.10;99.90
8226;DHT22;4154;48.810;9.012;2023-02-15T08:41:32;-1.10;99.90
8226;DHT22;4154;48.810;9.012;2023-02-15T08:44:01;-1.10;99.90
8226;DHT22;4154;48.810;9.012;2023-02-15T08:46:31;-1.00;99.90
8226;DHT22;4154;48.810;9.012;2023-02-15T08:48:58;-0.90;99.90
8226;DHT22;4154;48.810;9.012;2023-02-15T08:51:26;-0.90;99.90
8226;DHT22;4154;48.810;9.012;2023-02-15T08:53:56;-0.90;99.90
8226;DHT22;4154;48.810;9.012;2023-02-15T08:56:26;-0.80;99.90
8226;DHT22;4154;48.810;9.012;2023-02-15T09:01:23;-0.90;99.90
8226;DHT22;4154;48.810;9.012;2023-02-15T09:03:54;-0.90;99.90
8226;DHT22;4154;48.810;9.012;2023-02-15T09:06:22;-0.80;99.90
8226;DHT22;4154;48.810;9.012;2023-02-15T09:08:49;-0.80;99.90
8226;DHT22;4154;48.810;9.012;2023-02-15T09:11:19;-0.70;99.90
8226;DHT22;4154;48.810;9.012;2023-02-15T09:16:19;-0.60;99.90
8226;DHT22;4154;48.810;9.012;2023-02-15T09:18:46;-0.60;99.90
8226;DHT22;4154;48.810;9.012;2023-02-15T09:21:14;-0.60;99.90
8226;DHT22;4154;48.810;9.012;2023-02-15T09:23:42;-0.50;99.90
8226;DHT22;4154;48.810;9.012;2023-02-15T09:26:12;-0.50;99.90
8226;DHT22;4154;48.810;9.012;2023-02-15T09:28:39;-0.50;99.90
8226;DHT22;4154;48.810;9.012;2023-02-15T09:31:06;-0.40;99.90
8226;DHT22;4154;48.810;9.012;2023-02-15T09:33:35;-0.50;99.90
8226;DHT22;4154;48.810;9.012;2023-02-15T09:36:03;-0.30;99.90
8226;DHT22;4154;48.810;9.012;2023-02-15T09:38:30;-0.30;99.90
8226;DHT22;4154;48.810;9.012;2023-02-15T09:43:57;-0.10;99.90
8226;DHT22;4154;48.810;9.012;2023-02-15T09:47:05;-0.30;99.90
8226;DHT22;4154;48.810;9.012;2023-02-15T09:58:21;-0.10;99.90
8226;DHT22;4154;48.810;9.012;2023-02-15T10:01:21;-0.10;99.90
8226;DHT22;4154;48.810;9.012;2023-02-15T10:07:35;0.30;99.90
8226;DHT22;4154;48.810;9.012;2023-02-15T10:16:06;0.40;99.90
8226;DHT22;4154;48.810;9.012;2023-02-15T10:18:59;0.50;99.90
8226;DHT22;4154;48.810;9.012;2023-02-15T10:21:50;0.50;99.90
8226;DHT22;4154;48.810;9.012;2023-02-15T10:27:13;0.60;99.90
8226;DHT22;4154;48.810;9.012;2023-02-15T10:30:12;0.70;99.90
8226;DHT22;4154;48.810;9.012;2023-02-15T10:36:23;0.90;99.90
8226;DHT22;4154;48.810;9.012;2023-02-15T10:45:56;1.10;99.90
8226;DHT22;4154;48.810;9.012;2023-02-15T10:48:43;1.20;99.90
8226;DHT22;4154;48.810;9.012;2023-02-15T11:00:41;1.60;99.90
8226;DHT22;4154;48.810;9.012;2023-02-15T11:03:48;1.70;99.90
8226;DHT22;4154;48.810;9.012;2023-02-15T11:06:34;2.00;99.90
8226;DHT22;4154;48.810;9.012;2023-02-15T11:09:10;1.90;99.90
8226;DHT22;4154;48.810;9.012;2023-02-15T11:11:40;2.00;99.90
8226;DHT22;4154;48.810;9.012;2023-02-15T11:14:15;2.00;99.90
8226;DHT22;4154;48.810;9.012;2023-02-15T11:16:51;2.20;99.90
8226;DHT22;4154;48.810;9.012;2023-02-15T11:19:31;2.20;99.90
8226;DHT22;4154;48.810;9.012;2023-02-15T11:22:03;2.30;99.90
8226;DHT22;4154;48.810;9.012;2023-02-15T11:24:33;2.30;99.90
8226;DHT22;4154;48.810;9.012;2023-02-15T11:27:24;2.50;99.90
8226;DHT22;4154;48.810;9.012;2023-02-15T11:37:55;2.80;99.90
8226;DHT22;4154;48.810;9.012;2023-02-15T11:46:19;3.10;99.90
8226;DHT22;4154;48.810;9.012;2023-02-15T11:48:46;3.30;99.90
8226;DHT22;4154;48.810;9.012;2023-02-15T11:51:16;3.30;99.90
8226;DHT22;4154;48.810;9.012;2023-02-15T11:53:44;3.40;99.90
8226;DHT22;4154;48.810;9.012;2023-02-15T11:56:14;3.60;99.90
8226;DHT22;4154;48.810;9.012;2023-02-15T11:58:59;3.60;99.90
8226;DHT22;4154;48.810;9.012;2023-02-15T12:01:32;3.70;99.90
8226;DHT22;4154;48.810;9.012;2023-02-15T12:07:23;3.90;99.90
8226;DHT22;4154;48.810;9.012;2023-02-15T12:10:05;4.00;99.90
8226;DHT22;4154;48.810;9.012;2023-02-15T12:12:39;4.10;99.90
8226;DHT22;4154;48.810;9.012;2023-02-15T12:15:10;4.20;99.90
8226;DHT22;4154;48.810;9.012;2023-02-15T12:17:50;4.20;99.90
8226;DHT22;4154;48.810;9.012;2023-02-15T12:22:51;4.40;99.90
8226;DHT22;4154;48.810;9.012;2023-02-15T12:25:43;4.40;99.90
8226;DHT22;4154;48.810;9.012;2023-02-15T12:31:01;4.50;99.90
8226;DHT22;4154;48.810;9.012;2023-02-15T12:33:40;4.50;99.90
8226;DHT22;4154;48.810;9.012;2023-02-15T12:36:29;4.60;99.90
8226;DHT22;4154;48.810;9.012;2023-02-15T12:42:00;4.70;99.90
8226;DHT22;4154;48.810;9.012;2023-02-15T12:44:38;4.70;99.90
8226;DHT22;4154;48.810;9.012;2023-02-15T12:47:19;4.80;99.90
8226;DHT22;4154;48.810;9.012;2023-02-15T12:52:48;4.90;99.90
8226;DHT22;4154;48.810;9.012;2023-02-15T12:55:20;4.90;99.90
8226;DHT22;4154;48.810;9.012;2023-02-15T12:58:19;5.00;99.90
8226;DHT22;4154;48.810;9.012;2023-02-15T13:00:45;5.10;99.90
8226;DHT22;4154;48.810;9.012;2023-02-15T13:03:20;5.10;99.90
8226;DHT22;4154;48.810;9.012;2023-02-15T13:05:51;5.10;99.90
8226;DHT22;4154;48.810;9.012;2023-02-15T13:08:28;5.10;99.90
8226;DHT22;4154;48.810;9.012;2023-02-15T13:11:10;5.20;99.90
8226;DHT22;4154;48.810;9.012;2023-02-15T13:13:54;5.30;99.90
8226;DHT22;4154;48.810;9.012;2023-02-15T13:16:34;5.40;99.90
8226;DHT22;4154;48.810;9.012;2023-02-15T13:19:18;5.50;99.90
8226;DHT22;4154;48.810;9.012;2023-02-15T13:21:50;5.60;99.90
8226;DHT22;4154;48.810;9.012;2023-02-15T13:24:21;5.60;99.90
8226;DHT22;4154;48.810;9.012;2023-02-15T13:26:56;5.60;99.90
8226;DHT22;4154;48.810;9.012;2023-02-15T13:29:27;5.70;99.90
8226;DHT22;4154;48.810;9.012;2023-02-15T13:31:56;5.80;99.90
8226;DHT22;4154;48.810;9.012;2023-02-15T13:34:29;5.90;99.90
8226;DHT22;4154;48.810;9.012;2023-02-15T13:37:17;6.00;99.90
8226;DHT22;4154;48.810;9.012;2023-02-15T13:40:04;6.00;99.90
8226;DHT22;4154;48.810;9.012;2023-02-15T13:48:42;6.10;99.90
8226;DHT22;4154;48.810;9.012;2023-02-15T13:51:40;6.20;99.90
8226;DHT22;4154;48.810;9.012;2023-02-15T13:54:36;6.30;99.90
8226;DHT22;4154;48.810;9.012;2023-02-15T13:57:37;6.30;99.90
8226;DHT22;4154;48.810;9.012;2023-02-15T14:03:40;6.50;99.90
8226;DHT22;4154;48.810;9.012;2023-02-15T14:12:47;6.60;99.90
8226;DHT22;4154;48.810;9.012;2023-02-15T14:30:03;6.80;99.90
8226;DHT22;4154;48.810;9.012;2023-02-15T14:32:47;6.90;99.90
8226;DHT22;4154;48.810;9.012;2023-02-15T14:35:19;6.90;99.90
8226;DHT22;4154;48.810;9.012;2023-02-15T14:37:55;7.00;99.90
8226;DHT22;4154;48.810;9.012;2023-02-15T14:40:38;7.00;99.90
8226;DHT22;4154;48.810;9.012;2023-02-15T14:49:31;7.10;99.90
8226;DHT22;4154;48.810;9.012;2023-02-15T14:52:09;7.10;99.90
8226;DHT22;4154;48.810;9.012;2023-02-15T15:02:29;7.20;99.90
8226;DHT22;4154;48.810;9.012;2023-02-15T15:05:25;7.20;99.90
8226;DHT22;4154;48.810;9.012;2023-02-15T15:07:59;7.20;99.90
8226;DHT22;4154;48.810;9.012;2023-02-15T15:10:45;7.20;99.90
8226;DHT22;4154;48.810;9.012;2023-02-15T15:15:55;7.30;99.90
8226;DHT22;4154;48.810;9.012;2023-02-15T15:18:44;7.30;99.90
8226;DHT22;4154;48.810;9.012;2023-02-15T15:21:11;7.20;99.90
8226;DHT22;4154;48.810;9.012;2023-02-15T15:38:48;7.10;99.90
8226;DHT22;4154;48.810;9.012;2023-02-15T15:47:08;7.00;99.90
8226;DHT22;4154;48.810;9.012;2023-02-15T15:49:57;6.90;99.90
8226;DHT22;4154;48.810;9.012;2023-02-15T15:52:24;6.90;99.90
8226;DHT22;4154;48.810;9.012;2023-02-15T15:55:15;6.90;99.90
8226;DHT22;4154;48.810;9.012;2023-02-15T15:57:45;6.90;99.90
8226;DHT22;4154;48.810;9.012;2023-02-15T16:03:01;6.80;99.90
8226;DHT22;4154;48.810;9.012;2023-02-15T16:05:35;6.80;99.90
8226;DHT22;4154;48.810;9.012;2023-02-15T16:08:01;6.80;99.90
8226;DHT22;4154;48.810;9.012;2023-02-15T16:10:28;6.70;99.90
8226;DHT22;4154;48.810;9.012;2023-02-15T16:12:58;6.60;99.90
8226;DHT22;4154;48.810;9.012;2023-02-15T16:15:43;6.60;99.90
8226;DHT22;4154;48.810;9.012;2023-02-15T16:18:15;6.60;99.90
8226;DHT22;4154;48.810;9.012;2023-02-15T16:23:39;6.50;99.90
8226;DHT22;4154;48.810;9.012;2023-02-15T16:26:37;6.40;99.90
8226;DHT22;4154;48.810;9.012;2023-02-15T16:29:30;6.40;99.90
8226;DHT22;4154;48.810;9.012;2023-02-15T16:32:03;6.30;99.90
8226;DHT22;4154;48.810;9.012;2023-02-15T16:34:32;6.20;99.90
8226;DHT22;4154;48.810;9.012;2023-02-15T16:37:25;6.20;99.90
8226;DHT22;4154;48.810;9.012;2023-02-15T16:39:56;6.20;99.90
8226;DHT22;4154;48.810;9.012;2023-02-15T16:42:22;6.20;99.90
8226;DHT22;4154;48.810;9.012;2023-02-15T16:44:53;6.10;99.90
8226;DHT22;4154;48.810;9.012;2023-02-15T16:47:27;6.10;99.90
8226;DHT22;4154;48.810;9.012;2023-02-15T16:49:58;6.10;99.90
8226;DHT22;4154;48.810;9.012;2023-02-15T16:52:27;6.10;99.90
8226;DHT22;4154;48.810;9.012;2023-02-15T16:55:03;6.10;99.90
8226;DHT22;4154;48.810;9.012;2023-02-15T16:57:34;6.10;99.80
8226;DHT22;4154;48.810;9.012;2023-02-15T17:00:24;6.10;99.80
8226;DHT22;4154;48.810;9.012;2023-02-15T17:05:43;6.10;99.80
8226;DHT22;4154;48.810;9.012;2023-02-15T17:08:31;6.00;99.80
8226;DHT22;4154;48.810;9.012;2023-02-15T17:11:19;6.00;99.90
8226;DHT22;4154;48.810;9.012;2023-02-15T17:16:31;6.20;99.90
8226;DHT22;4154;48.810;9.012;2023-02-15T17:19:01;6.00;99.90
8226;DHT22;4154;48.810;9.012;2023-02-15T17:21:33;5.90;99.90
8226;DHT22;4154;48.810;9.012;2023-02-15T17:24:05;5.90;99.90
8226;DHT22;4154;48.810;9.012;2023-02-15T17:26:34;6.00;99.90
8226;DHT22;4154;48.810;9.012;2023-02-15T17:29:19;5.90;99.90
8226;DHT22;4154;48.810;9.012;2023-02-15T17:31:50;5.90;99.90
8226;DHT22;4154;48.810;9.012;2023-02-15T17:34:57;5.90;99.90
8226;DHT22;4154;48.810;9.012;2023-02-15T17:37:54;5.90;99.90
8226;DHT22;4154;48.810;9.012;2023-02-15T17:40:30;5.90;99.90
8226;DHT22;4154;48.810;9.012;2023-02-15T17:42:57;5.90;99.90
8226;DHT22;4154;48.810;9.012;2023-02-15T17:45:26;5.90;99.90
8226;DHT22;4154;48.810;9.012;2023-02-15T17:47:57;5.90;99.90
8226;DHT22;4154;48.810;9.012;2023-02-15T17:50:26;5.90;99.90
8226;DHT22;4154;48.810;9.012;2023-02-15T17:52:54;5.90;99.90
8226;DHT22;4154;48.810;9.012;2023-02-15T17:55:22;5.90;99.90
8226;DHT22;4154;48.810;9.012;2023-02-15T17:58:06;5.80;99.90
8226;DHT22;4154;48.810;9.012;2023-02-15T18:00:39;5.80;99.90
8226;DHT22;4154;48.810;9.012;2023-02-15T18:03:49;5.70;99.90
8226;DHT22;4154;48.810;9.012;2023-02-15T18:06:39;5.70;99.90
8226;DHT22;4154;48.810;9.012;2023-02-15T18:12:31;5.60;99.80
8226;DHT22;4154;48.810;9.012;2023-02-15T18:15:02;5.60;99.90
8226;DHT22;4154;48.810;9.012;2023-02-15T18:17:33;5.60;99.90
8226;DHT22;4154;48.810;9.012;2023-02-15T18:20:06;5.50;99.90
8226;DHT22;4154;48.810;9.012;2023-02-15T18:22:43;5.50;99.90
8226;DHT22;4154;48.810;9.012;2023-02-15T18:25:15;5.40;99.90
8226;DHT22;4154;48.810;9.012;2023-02-15T18:27:43;5.40;99.90
8226;DHT22;4154;48.810;9.012;2023-02-15T18:30:21;5.40;99.90
8226;DHT22;4154;48.810;9.012;2023-02-15T18:32:50;5.30;99.90
8226;DHT22;4154;48.810;9.012;2023-02-15T18:35:21;5.20;99.90
8226;DHT22;4154;48.810;9.012;2023-02-15T18:37:48;5.20;99.90
8226;DHT22;4154;48.810;9.012;2023-02-15T18:40:19;5.10;99.80
8226;DHT22;4154;48.810;9.012;2023-02-15T18:42:46;5.20;99.80
8226;DHT22;4154;48.810;9.012;2023-02-15T18:45:21;5.10;99.70
8226;DHT22;4154;48.810;9.012;2023-02-15T18:47:50;5.10;99.60
8226;DHT22;4154;48.810;9.012;2023-02-15T18:50:18;5.00;99.60
8226;DHT22;4154;48.810;9.012;2023-02-15T18:52:46;5.00;99.50
8226;DHT22;4154;48.810;9.012;2023-02-15T18:55:22;5.00;99.40
8226;DHT22;4154;48.810;9.012;2023-02-15T18:57:51;4.90;99.40
8226;DHT22;4154;48.810;9.012;2023-02-15T19:00:25;4.70;99.50
8226;DHT22;4154;48.810;9.012;2023-02-15T19:02:53;4.80;99.60
8226;DHT22;4154;48.810;9.012;2023-02-15T19:05:20;4.70;99.60
8226;DHT22;4154;48.810;9.012;2023-02-15T19:10:25;4.60;99.50
8226;DHT22;4154;48.810;9.012;2023-02-15T19:12:52;4.60;99.70
8226;DHT22;4154;48.810;9.012;2023-02-15T19:15:24;4.50;99.60
8226;DHT22;4154;48.810;9.012;2023-02-15T19:17:52;4.50;99.70
8226;DHT22;4154;48.810;9.012;2023-02-15T19:20:24;4.40;99.70
8226;DHT22;4154;48.810;9.012;2023-02-15T19:22:52;4.40;99.70
8226;DHT22;4154;48.810;9.012;2023-02-15T19:25:25;4.40;99.70
8226;DHT22;4154;48.810;9.012;2023-02-15T19:27:54;4.30;99.80
8226;DHT22;4154;48.810;9.012;2023-02-15T19:32:58;4.30;99.90
8226;DHT22;4154;48.810;9.012;2023-02-15T19:35:27;4.30;99.90
8226;DHT22;4154;48.810;9.012;2023-02-15T19:37:58;4.30;99.90
8226;DHT22;4154;48.810;9.012;2023-02-15T19:40:29;4.30;99.90
8226;DHT22;4154;48.810;9.012;2023-02-15T19:45:25;4.30;99.20
8226;DHT22;4154;48.810;9.012;2023-02-15T19:50:22;4.30;99.50
8226;DHT22;4154;48.810;9.012;2023-02-15T19:52:50;4.30;99.70
8226;DHT22;4154;48.810;9.012;2023-02-15T19:55:30;4.30;99.60
8226;DHT22;4154;48.810;9.012;2023-02-15T19:57:59;4.20;99.50
8226;DHT22;4154;48.810;9.012;2023-02-15T20:00:30;4.20;99.50
8226;DHT22;4154;48.810;9.012;2023-02-15T20:02:58;4.10;99.50
8226;DHT22;4154;48.810;9.012;2023-02-15T20:05:25;4.10;99.40
8226;DHT22;4154;48.810;9.012;2023-02-15T20:07:53;4.00;99.40
8226;DHT22;4154;48.810;9.012;2023-02-15T20:10:22;4.00;99.40
8226;DHT22;4154;48.810;9.012;2023-02-15T20:12:51;3.90;99.30
8226;DHT22;4154;48.810;9.012;2023-02-15T20:15:18;3.90;99.30
8226;DHT22;4154;48.810;9.012;2023-02-15T20:17:49;3.90;99.20
8226;DHT22;4154;48.810;9.012;2023-02-15T20:20:17;3.80;99.20
8226;DHT22;4154;48.810;9.012;2023-02-15T20:22:47;3.80;99.30
8226;DHT22;4154;48.810;9.012;2023-02-15T20:25:26;3.80;99.30